sensor_id;sensor_type;location;lat;lon;timestamp;pressure;altitude;pressure_sealevel;temperature;humidity
22830;BME280;11581;51.250;6.778;2023-02-13T00:02:06;103264.47;;;12.16;58.60
22830;BME280;11581;51.250;6.778;2023-02-13T00:04:33;103320.13;;;12.52;58.61
22830;BME280;11581;51.250;6.778;2023-02-13T00:07:00;103203.09;;;11.87;58.62
22830;BME280;11581;51.250;6.778;2023-02-13T00:09:28;103301.69;;;12.47;58.73
22830;BME280;11581;51.250;6.778;2023-02-13T00:11:55;103308.97;;;12.45;58.78
22830;BME280;11581;51.250;6.778;2023-02-13T00:14:24;103309.06;;;12.44;58.91
22830;BME280;11581;51.250;6.778;2023-02-13T00:16:51;103317.09;;;12.44;58.66
22830;BME280;11581;51.250;6.778;2023-02-13T00:19:18;103305.53;;;12.43;58.66
22830;BME280;11581;51.250;6.778;2023-02-13T00:21:44;103296.75;;;12.41;58.76
22830;BME280;11581;51.250;6.778;2023-02-13T00:24:11;103302.31;;;12.38;58.70
22830;BME280;11581;51.250;6.778;2023-02-13T00:26:39;103289.00;;;12.37;58.77
22830;BME280;11581;51.250;6.778;2023-02-13T00:29:06;103292.72;;;12.34;58.83
22830;BME280;11581;51.250;6.778;2023-02-13T00:31:35;103191.25;;;11.77;58.84
22830;BME280;11581;51.250;6.778;2023-02-13T00:34:02;103285.75;;;12.32;58.85
22830;BME280;11581;51.250;6.778;2023-02-13T00:36:29;103276.41;;;12.25;58.90
22830;BME280;11581;51.250;6.778;2023-02-13T00:38:56;103282.53;;;12.27;59.00
22830;BME280;11581;51.250;6.778;2023-02-13T00:41:24;103295.03;;;12.26;59.19
22830;BME280;11581;51.250;6.778;2023-02-13T00:43:51;103280.78;;;12.26;59.01
22830;BME280;11581;51.250;6.778;2023-02-13T00:46:19;103222.78;;;11.86;59.25
22830;BME280;11581;51.250;6.778;2023-02-13T00:48:48;103277.38;;;12.24;59.07
22830;BME280;11581;51.250;6.778;2023-02-13T00:51:15;103271.09;;;12.11;58.99
22830;BME280;11581;51.250;6.778;2023-02-13T00:53:42;103282.94;;;12.21;59.19
22830;BME280;11581;51.250;6.778;2023-02-13T00:56:09;103278.59;;;12.18;59.22
22830;BME280;11581;51.250;6.778;2023-02-13T00:58:36;103275.19;;;12.16;59.15
22830;BME280;11581;51.250;6.778;2023-02-13T01:01:03;103278.81;;;12.15;59.12
22830;BME280;11581;51.250;6.778;2023-02-13T01:03:30;103233.47;;;11.86;59.24
22830;BME280;11581;51.250;6.778;2023-02-13T01:05:59;103278.06;;;12.13;59.41
22830;BME280;11581;51.250;6.778;2023-02-13T01:08:26;103292.31;;;12.14;59.33
22830;BME280;11581;51.250;6.778;2023-02-13T01:10:54;103290.56;;;12.13;59.40
22830;BME280;11581;51.250;6.778;2023-02-13T01:13:22;103280.72;;;12.13;59.49
22830;BME280;11581;51.250;6.778;2023-02-13T01:15:49;103278.16;;;12.12;59.44
22830;BME280;11581;51.250;6.778;2023-02-13T01:18:19;103220.75;;;11.75;59.45
22830;BME280;11581;51.250;6.778;2023-02-13T01:20:55;103260.28;;;11.98;59.77
22830;BME280;11581;51.250;6.778;2023-02-13T01:23:25;103274.50;;;12.13;59.48
22830;BME280;11581;51.250;6.778;2023-02-13T01:25:54;103237.75;;;11.88;59.36
22830;BME280;11581;51.250;6.778;2023-02-13T01:28:21;103282.72;;;12.10;59.42
22830;BME280;11581;51.250;6.778;2023-02-13T01:30:52;103199.34;;;11.61;59.78
22830;BME280;11581;51.250;6.778;2023-02-13T01:33:20;103279.31;;;12.08;59.50
22830;BME280;11581;51.250;6.778;2023-02-13T01:35:47;103279.41;;;12.06;59.44
22830;BME280;11581;51.250;6.778;2023-02-13T01:38:14;103220.75;;;11.75;59.50
22830;BME280;11581;51.250;6.778;2023-02-13T01:40:47;103269.97;;;12.01;59.99
22830;BME280;11581;51.250;6.778;2023-02-13T01:43:15;103219.53;;;11.67;59.62
22830;BME280;11581;51.250;6.778;2023-02-13T01:45:43;103272.81;;;11.98;59.63
22830;BME280;11581;51.250;6.778;2023-02-13T01:48:14;103256.00;;;11.96;59.77
22830;BME280;11581;51.250;6.778;2023-02-13T01:50:47;103261.34;;;11.96;59.95
22830;BME280;11581;51.250;6.778;2023-02-13T01:53:19;103203.28;;;11.56;59.61
22830;BME280;11581;51.250;6.778;2023-02-13T01:55:51;103258.00;;;11.92;59.96
22830;BME280;11581;51.250;6.778;2023-02-13T01:58:25;103239.38;;;11.77;60.03
22830;BME280;11581;51.250;6.778;2023-02-13T02:00:53;103243.22;;;11.73;59.79
22830;BME280;11581;51.250;6.778;2023-02-13T02:03:23;103261.91;;;11.87;60.09
22830;BME280;11581;51.250;6.778;2023-02-13T02:05:56;103233.56;;;11.70;59.84
22830;BME280;11581;51.250;6.778;2023-02-13T02:08:27;103155.53;;;11.21;59.87
22830;BME280;11581;51.250;6.778;2023-02-13T02:11:00;103258.59;;;11.83;60.24
22830;BME280;11581;51.250;6.778;2023-02-13T02:13:31;103260.41;;;11.83;59.93
22830;BME280;11581;51.250;6.778;2023-02-13T02:16:04;103217.47;;;11.56;59.91
22830;BME280;11581;51.250;6.778;2023-02-13T02:18:31;103260.59;;;11.80;59.93
22830;BME280;11581;51.250;6.778;2023-02-13T02:34:08;103238.13;;;11.54;60.69
22830;BME280;11581;51.250;6.778;2023-02-13T02:36:55;103267.66;;;11.67;60.73
22830;BME280;11581;51.250;6.778;2023-02-13T02:39:37;103237.44;;;11.51;60.49
22830;BME280;11581;51.250;6.778;2023-02-13T02:42:17;103144.59;;;10.96;60.51
22830;BME280;11581;51.250;6.778;2023-02-13T02:44:53;103137.56;;;10.95;60.70
22830;BME280;11581;51.250;6.778;2023-02-13T02:47:24;103208.13;;;11.35;60.55
22830;BME280;11581;51.250;6.778;2023-02-13T02:50:19;103263.59;;;11.60;60.83
22830;BME280;11581;51.250;6.778;2023-02-13T02:52:58;103258.25;;;11.60;60.99
22830;BME280;11581;51.250;6.778;2023-02-13T02:55:34;103155.78;;;11.03;60.64
22830;BME280;11581;51.250;6.778;2023-02-13T02:58:10;103113.88;;;10.75;60.75
22830;BME280;11581;51.250;6.778;2023-02-13T03:00:58;103256.50;;;11.59;60.59
22830;BME280;11581;51.250;6.778;2023-02-13T03:03:45;103260.16;;;11.58;60.35
22830;BME280;11581;51.250;6.778;2023-02-13T03:06:34;103162.56;;;10.94;60.55
22830;BME280;11581;51.250;6.778;2023-02-13T03:09:06;103260.34;;;11.55;60.74
22830;BME280;11581;51.250;6.778;2023-02-13T03:11:55;103253.75;;;11.46;60.63
22830;BME280;11581;51.250;6.778;2023-02-13T03:14:40;103258.81;;;11.51;60.65
22830;BME280;11581;51.250;6.778;2023-02-13T03:17:10;103258.91;;;11.49;60.86
22830;BME280;11581;51.250;6.778;2023-02-13T03:20:03;103257.09;;;11.50;61.25
22830;BME280;11581;51.250;6.778;2023-02-13T03:23:02;103266.94;;;11.49;61.33
22830;BME280;11581;51.250;6.778;2023-02-13T03:25:36;103213.44;;;11.21;61.01
22830;BME280;11581;51.250;6.778;2023-02-13T03:28:12;103171.69;;;10.90;60.71
22830;BME280;11581;51.250;6.778;2023-02-13T03:31:07;103263.38;;;11.49;61.29
22830;BME280;11581;51.250;6.778;2023-02-13T03:33:52;103269.59;;;11.49;61.21
22830;BME280;11581;51.250;6.778;2023-02-13T03:36:31;103241.81;;;11.38;61.31
22830;BME280;11581;51.250;6.778;2023-02-13T03:39:20;103240.09;;;11.37;61.13
22830;BME280;11581;51.250;6.778;2023-02-13T03:41:52;103192.50;;;10.99;61.13
22830;BME280;11581;51.250;6.778;2023-02-13T03:44:27;103251.44;;;11.40;61.39
22830;BME280;11581;51.250;6.778;2023-02-13T03:46:59;103245.63;;;11.33;61.19
22830;BME280;11581;51.250;6.778;2023-02-13T03:49:29;103233.59;;;11.26;61.27
22830;BME280;11581;51.250;6.778;2023-02-13T03:52:18;103201.03;;;10.90;61.43
22830;BME280;11581;51.250;6.778;2023-02-13T03:54:53;103238.03;;;11.12;61.32
22830;BME280;11581;51.250;6.778;2023-02-13T03:57:41;103237.56;;;11.19;61.21
22830;BME280;11581;51.250;6.778;2023-02-13T04:00:32;103225.34;;;11.15;61.47
22830;BME280;11581;51.250;6.778;2023-02-13T04:03:05;103232.00;;;11.08;61.50
22830;BME280;11581;51.250;6.778;2023-02-13T04:05:38;103257.44;;;11.29;61.46
22830;BME280;11581;51.250;6.778;2023-02-13T04:08:06;103255.81;;;11.27;61.27
22830;BME280;11581;51.250;6.778;2023-02-13T04:10:41;103189.19;;;10.80;61.86
22830;BME280;11581;51.250;6.778;2023-02-13T04:13:15;103251.50;;;11.10;61.72
22830;BME280;11581;51.250;6.778;2023-02-13T04:15:47;103274.78;;;11.22;61.86
22830;BME280;11581;51.250;6.778;2023-02-13T04:18:19;103277.53;;;11.21;61.86
22830;BME280;11581;51.250;6.778;2023-02-13T04:20:48;103161.47;;;10.53;61.51
22830;BME280;11581;51.250;6.778;2023-02-13T04:23:15;103205.81;;;10.85;61.69
22830;BME280;11581;51.250;6.778;2023-02-13T04:25:46;103265.59;;;11.12;61.98
22830;BME280;11581;51.250;6.778;2023-02-13T04:28:14;103233.88;;;10.92;61.63
22830;BME280;11581;51.250;6.778;2023-02-13T04:30:41;103184.00;;;10.63;61.65
22830;BME280;11581;51.250;6.778;2023-02-13T04:33:07;103259.69;;;11.07;61.71
22830;BME280;11581;51.250;6.778;2023-02-13T04:35:34;103231.19;;;10.92;61.74
22830;BME280;11581;51.250;6.778;2023-02-13T04:38:01;103257.28;;;11.03;61.77
22830;BME280;11581;51.250;6.778;2023-02-13T04:40:28;103272.63;;;10.99;61.73
22830;BME280;11581;51.250;6.778;2023-02-13T04:42:57;103248.34;;;10.88;61.70
22830;BME280;11581;51.250;6.778;2023-02-13T04:45:24;103243.94;;;10.87;61.80
22830;BME280;11581;51.250;6.778;2023-02-13T04:47:52;103270.47;;;10.90;61.80
22830;BME280;11581;51.250;6.778;2023-02-13T04:50:20;103258.16;;;10.88;62.00
22830;BME280;11581;51.250;6.778;2023-02-13T04:52:50;103268.19;;;10.84;62.37
22830;BME280;11581;51.250;6.778;2023-02-13T04:55:18;103263.03;;;10.81;62.05
22830;BME280;11581;51.250;6.778;2023-02-13T04:57:45;103262.31;;;10.78;62.11
22830;BME280;11581;51.250;6.778;2023-02-13T05:00:15;103252.34;;;10.66;62.52
22830;BME280;11581;51.250;6.778;2023-02-13T05:02:42;103257.44;;;10.70;62.22
22830;BME280;11581;51.250;6.778;2023-02-13T05:05:09;103261.13;;;10.68;62.30
22830;BME280;11581;51.250;6.778;2023-02-13T05:07:36;103249.00;;;10.62;62.43
22830;BME280;11581;51.250;6.778;2023-02-13T05:10:04;103232.16;;;10.46;62.35
22830;BME280;11581;51.250;6.778;2023-02-13T05:12:31;103121.41;;;9.77;62.38
22830;BME280;11581;51.250;6.778;2023-02-13T05:14:58;103261.16;;;10.52;62.50
22830;BME280;11581;51.250;6.778;2023-02-13T05:17:26;103258.66;;;10.49;63.10
22830;BME280;11581;51.250;6.778;2023-02-13T05:19:53;103251.69;;;10.47;62.76
22830;BME280;11581;51.250;6.778;2023-02-13T05:22:20;103190.28;;;10.00;62.82
22830;BME280;11581;51.250;6.778;2023-02-13T05:25:04;103206.78;;;10.08;62.69
22830;BME280;11581;51.250;6.778;2023-02-13T05:27:33;103139.97;;;9.63;62.78
22830;BME280;11581;51.250;6.778;2023-02-13T05:30:00;103252.47;;;10.33;63.18
22830;BME280;11581;51.250;6.778;2023-02-13T05:32:27;103255.31;;;10.30;63.30
22830;BME280;11581;51.250;6.778;2023-02-13T05:34:53;103261.66;;;10.28;63.02
22830;BME280;11581;51.250;6.778;2023-02-13T05:37:20;103264.44;;;10.26;63.24
22830;BME280;11581;51.250;6.778;2023-02-13T05:39:49;103225.56;;;10.05;63.19
22830;BME280;11581;51.250;6.778;2023-02-13T05:42:15;103154.44;;;9.59;63.25
22830;BME280;11581;51.250;6.778;2023-02-13T05:44:42;103256.88;;;10.19;63.30
22830;BME280;11581;51.250;6.778;2023-02-13T05:47:09;103260.53;;;10.16;63.49
22830;BME280;11581;51.250;6.778;2023-02-13T05:49:38;103286.53;;;10.13;63.85
22830;BME280;11581;51.250;6.778;2023-02-13T05:52:05;103108.13;;;9.29;63.48
22830;BME280;11581;51.250;6.778;2023-02-13T05:54:32;103199.75;;;9.75;63.69
22830;BME280;11581;51.250;6.778;2023-02-13T05:56:59;103258.41;;;10.07;63.63
22830;BME280;11581;51.250;6.778;2023-02-13T05:59:26;103183.56;;;9.62;63.70
22830;BME280;11581;51.250;6.778;2023-02-13T06:01:53;103104.41;;;9.16;63.73
22830;BME280;11581;51.250;6.778;2023-02-13T06:04:20;103227.38;;;9.89;63.99
22830;BME280;11581;51.250;6.778;2023-02-13T06:06:49;103201.53;;;9.74;63.92
22830;BME280;11581;51.250;6.778;2023-02-13T06:09:16;103134.59;;;9.32;63.67
22830;BME280;11581;51.250;6.778;2023-02-13T06:11:43;103224.94;;;9.85;63.86
22830;BME280;11581;51.250;6.778;2023-02-13T06:14:10;103125.19;;;9.09;63.87
22830;BME280;11581;51.250;6.778;2023-02-13T06:16:38;103247.41;;;9.96;63.89
22830;BME280;11581;51.250;6.778;2023-02-13T06:19:06;103091.59;;;9.07;63.79
22830;BME280;11581;51.250;6.778;2023-02-13T06:21:34;103073.53;;;8.96;63.91
22830;BME280;11581;51.250;6.778;2023-02-13T06:24:05;103240.63;;;9.91;64.50
22830;BME280;11581;51.250;6.778;2023-02-13T06:26:32;103208.63;;;9.75;64.11
22830;BME280;11581;51.250;6.778;2023-02-13T06:28:59;103249.56;;;9.90;64.06
22830;BME280;11581;51.250;6.778;2023-02-13T06:31:26;103251.44;;;9.88;64.21
22830;BME280;11581;51.250;6.778;2023-02-13T06:33:53;103242.56;;;9.87;64.17
22830;BME280;11581;51.250;6.778;2023-02-13T06:36:20;103252.47;;;9.85;64.20
22830;BME280;11581;51.250;6.778;2023-02-13T06:38:47;103248.84;;;9.86;64.41
22830;BME280;11581;51.250;6.778;2023-02-13T06:41:15;103183.50;;;9.47;64.42
22830;BME280;11581;51.250;6.778;2023-02-13T06:43:42;103245.41;;;9.84;64.33
22830;BME280;11581;51.250;6.778;2023-02-13T06:46:09;103226.56;;;9.72;64.12
22830;BME280;11581;51.250;6.778;2023-02-13T06:48:36;103243.69;;;9.83;64.36
22830;BME280;11581;51.250;6.778;2023-02-13T06:51:03;103204.19;;;9.59;64.39
22830;BME280;11581;51.250;6.778;2023-02-13T06:53:30;103242.94;;;9.81;64.62
22830;BME280;11581;51.250;6.778;2023-02-13T06:55:57;103245.59;;;9.81;64.69
22830;BME280;11581;51.250;6.778;2023-02-13T06:58:25;103235.84;;;9.80;64.83
22830;BME280;11581;51.250;6.778;2023-02-13T07:00:52;103212.88;;;9.62;64.61
22830;BME280;11581;51.250;6.778;2023-02-13T07:03:19;103236.81;;;9.79;64.53
22830;BME280;11581;51.250;6.778;2023-02-13T07:05:46;103238.53;;;9.80;64.64
22830;BME280;11581;51.250;6.778;2023-02-13T07:08:16;103243.84;;;9.80;64.78
22830;BME280;11581;51.250;6.778;2023-02-13T07:10:44;103240.28;;;9.81;64.70
22830;BME280;11581;51.250;6.778;2023-02-13T07:13:11;103247.22;;;9.84;65.19
22830;BME280;11581;51.250;6.778;2023-02-13T07:15:42;103217.69;;;9.71;65.79
22830;BME280;11581;51.250;6.778;2023-02-13T07:18:08;103251.63;;;10.00;66.23
22830;BME280;11581;51.250;6.778;2023-02-13T07:20:36;103234.75;;;10.17;66.67
22830;BME280;11581;51.250;6.778;2023-02-13T07:23:04;103250.38;;;10.38;66.60
22830;BME280;11581;51.250;6.778;2023-02-13T07:25:31;103246.34;;;10.62;66.67
22830;BME280;11581;51.250;6.778;2023-02-13T07:28:00;103247.50;;;10.88;66.27
22830;BME280;11581;51.250;6.778;2023-02-13T07:30:27;103251.09;;;11.16;66.22
22830;BME280;11581;51.250;6.778;2023-02-13T07:32:58;103184.72;;;11.10;65.49
22830;BME280;11581;51.250;6.778;2023-02-13T07:35:25;103255.25;;;11.80;65.39
22830;BME280;11581;51.250;6.778;2023-02-13T07:37:52;103252.25;;;12.12;64.76
22830;BME280;11581;51.250;6.778;2023-02-13T07:40:20;103212.28;;;12.23;63.93
22830;BME280;11581;51.250;6.778;2023-02-13T07:42:47;103252.34;;;12.78;63.44
22830;BME280;11581;51.250;6.778;2023-02-13T07:45:15;103152.44;;;12.51;62.42
22830;BME280;11581;51.250;6.778;2023-02-13T07:47:42;103232.69;;;13.30;61.66
22830;BME280;11581;51.250;6.778;2023-02-13T07:50:11;103253.59;;;13.76;60.18
22830;BME280;11581;51.250;6.778;2023-02-13T07:52:38;103267.44;;;14.07;60.04
22830;BME280;11581;51.250;6.778;2023-02-13T07:55:06;103268.91;;;14.36;59.41
22830;BME280;11581;51.250;6.778;2023-02-13T07:57:33;103269.31;;;14.66;58.67
22830;BME280;11581;51.250;6.778;2023-02-13T08:00:00;103238.09;;;14.76;58.19
22830;BME280;11581;51.250;6.778;2023-02-13T08:02:37;103259.28;;;15.26;57.61
22830;BME280;11581;51.250;6.778;2023-02-13T08:05:04;103255.63;;;15.51;56.41
22830;BME280;11581;51.250;6.778;2023-02-13T08:07:33;103258.22;;;15.86;55.27
22830;BME280;11581;51.250;6.778;2023-02-13T08:09:59;103203.66;;;15.84;55.39
22830;BME280;11581;51.250;6.778;2023-02-13T08:12:44;103249.47;;;16.37;54.83
22830;BME280;11581;51.250;6.778;2023-02-13T08:15:13;103264.50;;;16.73;53.65
22830;BME280;11581;51.250;6.778;2023-02-13T08:17:41;103251.25;;;17.01;53.38
22830;BME280;11581;51.250;6.778;2023-02-13T08:20:08;103260.81;;;17.26;51.97
22830;BME280;11581;51.250;6.778;2023-02-13T08:22:38;103258.16;;;17.46;49.32
22830;BME280;11581;51.250;6.778;2023-02-13T08:25:06;103245.56;;;17.56;49.61
22830;BME280;11581;51.250;6.778;2023-02-13T08:27:33;103251.88;;;17.66;49.26
22830;BME280;11581;51.250;6.778;2023-02-13T08:30:00;103272.25;;;17.80;48.76
22830;BME280;11581;51.250;6.778;2023-02-13T08:32:27;103235.53;;;17.68;48.20
22830;BME280;11581;51.250;6.778;2023-02-13T08:34:54;103237.00;;;17.72;48.32
22830;BME280;11581;51.250;6.778;2023-02-13T08:37:22;103212.66;;;17.62;46.92
22830;BME280;11581;51.250;6.778;2023-02-13T08:39:51;103219.09;;;17.71;46.60
22830;BME280;11581;51.250;6.778;2023-02-13T08:42:20;103272.13;;;18.12;46.88
22830;BME280;11581;51.250;6.778;2023-02-13T08:44:47;103266.03;;;18.19;47.00
22830;BME280;11581;51.250;6.778;2023-02-13T08:47:14;103267.66;;;18.31;46.63
22830;BME280;11581;51.250;6.778;2023-02-13T08:49:41;103260.88;;;18.37;46.53
22830;BME280;11581;51.250;6.778;2023-02-13T08:52:08;103258.63;;;18.42;45.53
22830;BME280;11581;51.250;6.778;2023-02-13T08:54:36;103280.22;;;18.42;45.62
22830;BME280;11581;51.250;6.778;2023-02-13T08:57:04;103272.25;;;18.40;44.51
22830;BME280;11581;51.250;6.778;2023-02-13T08:59:31;103186.78;;;17.90;45.16
22830;BME280;11581;51.250;6.778;2023-02-13T09:01:57;103207.81;;;17.96;44.71
22830;BME280;11581;51.250;6.778;2023-02-13T09:04:24;103268.94;;;18.27;44.65
22830;BME280;11581;51.250;6.778;2023-02-13T09:06:52;103270.88;;;18.16;44.40
22830;BME280;11581;51.250;6.778;2023-02-13T09:09:19;103272.22;;;18.01;43.85
22830;BME280;11581;51.250;6.778;2023-02-13T09:11:46;103272.88;;;17.84;43.97
22830;BME280;11581;51.250;6.778;2023-02-13T09:14:16;103275.72;;;17.61;43.88
22830;BME280;11581;51.250;6.778;2023-02-13T09:16:43;103245.38;;;17.28;44.69
22830;BME280;11581;51.250;6.778;2023-02-13T09:19:10;103267.94;;;17.27;45.57
22830;BME280;11581;51.250;6.778;2023-02-13T09:21:36;103221.06;;;16.87;45.93
22830;BME280;11581;51.250;6.778;2023-02-13T09:24:06;103272.53;;;17.15;44.91
22830;BME280;11581;51.250;6.778;2023-02-13T09:26:33;103224.88;;;16.84;46.17
22830;BME280;11581;51.250;6.778;2023-02-13T09:29:00;103222.88;;;16.86;46.01
22830;BME280;11581;51.250;6.778;2023-02-13T09:31:28;103283.00;;;17.29;45.58
22830;BME280;11581;51.250;6.778;2023-02-13T09:33:56;103281.09;;;17.41;46.72
22830;BME280;11581;51.250;6.778;2023-02-13T09:36:23;103270.97;;;17.54;46.43
22830;BME280;11581;51.250;6.778;2023-02-13T09:38:54;103273.53;;;17.76;45.97
22830;BME280;11581;51.250;6.778;2023-02-13T09:41:25;103272.75;;;17.95;44.59
22830;BME280;11581;51.250;6.778;2023-02-13T09:43:55;103261.56;;;17.99;44.14
22830;BME280;11581;51.250;6.778;2023-02-13T09:46:30;103281.84;;;18.24;43.04
22830;BME280;11581;51.250;6.778;2023-02-13T09:49:00;103287.56;;;18.30;43.29
22830;BME280;11581;51.250;6.778;2023-02-13T09:51:30;103255.50;;;18.16;43.43
22830;BME280;11581;51.250;6.778;2023-02-13T09:54:00;103282.69;;;18.24;42.65
22830;BME280;11581;51.250;6.778;2023-02-13T09:56:38;103289.66;;;18.17;42.49
22830;BME280;11581;51.250;6.778;2023-02-13T09:59:16;103278.19;;;18.04;42.23
22830;BME280;11581;51.250;6.778;2023-02-13T10:01:50;103282.75;;;18.04;42.69
22830;BME280;11581;51.250;6.778;2023-02-13T10:04:25;103263.09;;;17.92;42.71
22830;BME280;11581;51.250;6.778;2023-02-13T10:07:09;103285.63;;;18.12;42.98
22830;BME280;11581;51.250;6.778;2023-02-13T10:09:41;103267.31;;;18.15;43.83
22830;BME280;11581;51.250;6.778;2023-02-13T10:12:23;103291.88;;;18.42;42.66
22830;BME280;11581;51.250;6.778;2023-02-13T10:15:05;103292.63;;;18.54;42.36
22830;BME280;11581;51.250;6.778;2023-02-13T10:17:49;103287.94;;;18.65;45.15
22830;BME280;11581;51.250;6.778;2023-02-13T10:20:25;103285.41;;;18.73;41.83
22830;BME280;11581;51.250;6.778;2023-02-13T10:22:56;103286.84;;;18.77;42.43
22830;BME280;11581;51.250;6.778;2023-02-13T10:25:27;103173.59;;;18.06;41.82
22830;BME280;11581;51.250;6.778;2023-02-13T10:27:59;103287.13;;;18.74;41.26
22830;BME280;11581;51.250;6.778;2023-02-13T10:30:32;103286.69;;;18.69;41.67
22830;BME280;11581;51.250;6.778;2023-02-13T10:33:05;103232.66;;;18.30;41.62
22830;BME280;11581;51.250;6.778;2023-02-13T10:35:52;103290.91;;;18.62;42.06
22830;BME280;11581;51.250;6.778;2023-02-13T10:38:22;103285.69;;;18.70;42.74
22830;BME280;11581;51.250;6.778;2023-02-13T10:41:02;103210.78;;;18.33;41.59
22830;BME280;11581;51.250;6.778;2023-02-13T10:43:39;103281.47;;;19.06;41.51
22830;BME280;11581;51.250;6.778;2023-02-13T10:46:19;103278.75;;;19.34;42.10
22830;BME280;11581;51.250;6.778;2023-02-13T10:48:59;103280.81;;;19.69;40.95
22830;BME280;11581;51.250;6.778;2023-02-13T10:51:32;103281.25;;;20.11;41.28
22830;BME280;11581;51.250;6.778;2023-02-13T10:54:29;103281.56;;;20.62;41.35
22830;BME280;11581;51.250;6.778;2023-02-13T10:57:10;103278.75;;;21.16;39.71
22830;BME280;11581;51.250;6.778;2023-02-13T10:59:51;103273.06;;;21.70;38.58
22830;BME280;11581;51.250;6.778;2023-02-13T11:02:24;103256.69;;;22.13;38.82
22830;BME280;11581;51.250;6.778;2023-02-13T11:04:57;103251.63;;;22.68;36.40
22830;BME280;11581;51.250;6.778;2023-02-13T11:07:25;103263.75;;;23.13;38.18
22830;BME280;11581;51.250;6.778;2023-02-13T11:09:57;103255.25;;;23.48;36.41
22830;BME280;11581;51.250;6.778;2023-02-13T11:12:26;103254.31;;;23.80;35.86
22830;BME280;11581;51.250;6.778;2023-02-13T11:14:56;103257.69;;;24.06;35.29
22830;BME280;11581;51.250;6.778;2023-02-13T11:17:25;103216.09;;;24.12;34.83
22830;BME280;11581;51.250;6.778;2023-02-13T11:19:55;103234.47;;;24.49;33.70
22830;BME280;11581;51.250;6.778;2023-02-13T11:22:29;103236.22;;;24.72;32.82
22830;BME280;11581;51.250;6.778;2023-02-13T11:25:00;103212.88;;;24.92;34.19
22830;BME280;11581;51.250;6.778;2023-02-13T11:27:31;103223.13;;;25.27;33.83
22830;BME280;11581;51.250;6.778;2023-02-13T11:30:00;103159.66;;;25.25;33.64
22830;BME280;11581;51.250;6.778;2023-02-13T11:32:29;103161.50;;;25.62;33.00
22830;BME280;11581;51.250;6.778;2023-02-13T11:34:57;103211.50;;;26.35;33.03
22830;BME280;11581;51.250;6.778;2023-02-13T11:37:42;103208.31;;;26.67;32.12
22830;BME280;11581;51.250;6.778;2023-02-13T11:40:28;103140.09;;;26.51;31.59
22830;BME280;11581;51.250;6.778;2023-02-13T11:42:56;103214.16;;;27.06;31.81
22830;BME280;11581;51.250;6.778;2023-02-13T11:45:24;103210.03;;;27.17;30.59
22830;BME280;11581;51.250;6.778;2023-02-13T11:47:53;103205.78;;;27.35;30.46
22830;BME280;11581;51.250;6.778;2023-02-13T11:50:25;103206.53;;;27.50;28.59
22830;BME280;11581;51.250;6.778;2023-02-13T11:52:55;103189.84;;;27.45;28.99
22830;BME280;11581;51.250;6.778;2023-02-13T11:55:30;103187.09;;;27.45;28.59
22830;BME280;11581;51.250;6.778;2023-02-13T11:58:00;103191.38;;;27.54;28.81
22830;BME280;11581;51.250;6.778;2023-02-13T12:00:32;103196.41;;;27.51;28.74
22830;BME280;11581;51.250;6.778;2023-02-13T12:03:02;103188.44;;;27.56;33.11
22830;BME280;11581;51.250;6.778;2023-02-13T12:05:31;103182.34;;;27.60;29.03
22830;BME280;11581;51.250;6.778;2023-02-13T12:07:59;103183.84;;;27.63;28.92
22830;BME280;11581;51.250;6.778;2023-02-13T12:10:28;103173.31;;;27.66;28.95
22830;BME280;11581;51.250;6.778;2023-02-13T12:12:57;103182.41;;;27.73;28.87
22830;BME280;11581;51.250;6.778;2023-02-13T12:15:28;103164.50;;;27.77;28.10
22830;BME280;11581;51.250;6.778;2023-02-13T12:18:03;103177.25;;;27.91;27.18
22830;BME280;11581;51.250;6.778;2023-02-13T12:20:42;103182.78;;;27.98;26.79
22830;BME280;11581;51.250;6.778;2023-02-13T12:23:21;103157.03;;;27.92;26.79
22830;BME280;11581;51.250;6.778;2023-02-13T12:26:10;103166.53;;;27.96;27.35
22830;BME280;11581;51.250;6.778;2023-02-13T12:31:53;103137.78;;;27.86;26.44
22830;BME280;11581;51.250;6.778;2023-02-13T12:34:35;103152.72;;;27.83;26.53
22830;BME280;11581;51.250;6.778;2023-02-13T12:37:21;103145.50;;;27.69;26.56
22830;BME280;11581;51.250;6.778;2023-02-13T12:40:02;103149.66;;;27.59;26.72
22830;BME280;11581;51.250;6.778;2023-02-13T12:42:46;103151.31;;;27.53;26.89
22830;BME280;11581;51.250;6.778;2023-02-13T12:45:29;103105.59;;;27.26;26.91
22830;BME280;11581;51.250;6.778;2023-02-13T12:48:08;103146.72;;;27.60;26.36
22830;BME280;11581;51.250;6.778;2023-02-13T12:50:51;103142.91;;;27.61;25.95
22830;BME280;11581;51.250;6.778;2023-02-13T12:56:45;103134.03;;;27.59;26.90
22830;BME280;11581;51.250;6.778;2023-02-13T12:59:22;103137.63;;;27.60;26.23
22830;BME280;11581;51.250;6.778;2023-02-13T13:02:23;103124.78;;;27.60;27.74
22830;BME280;11581;51.250;6.778;2023-02-13T13:05:04;103114.69;;;27.74;26.28
22830;BME280;11581;51.250;6.778;2023-02-13T13:07:46;103128.72;;;27.85;26.24
22830;BME280;11581;51.250;6.778;2023-02-13T13:10:30;103120.22;;;27.80;26.24
22830;BME280;11581;51.250;6.778;2023-02-13T13:13:08;103126.63;;;27.87;25.90
22830;BME280;11581;51.250;6.778;2023-02-13T13:15:43;103104.44;;;27.82;25.74
22830;BME280;11581;51.250;6.778;2023-02-13T13:18:25;103118.19;;;27.89;26.10
22830;BME280;11581;51.250;6.778;2023-02-13T13:21:05;103112.50;;;27.90;25.63
22830;BME280;11581;51.250;6.778;2023-02-13T13:23:40;103091.75;;;27.75;25.33
22830;BME280;11581;51.250;6.778;2023-02-13T13:26:16;103106.47;;;27.67;26.77
22830;BME280;11581;51.250;6.778;2023-02-13T13:28:55;103111.22;;;27.52;25.92
22830;BME280;11581;51.250;6.778;2023-02-13T13:31:25;103099.16;;;27.40;26.36
22830;BME280;11581;51.250;6.778;2023-02-13T13:33:57;103084.53;;;27.27;26.07